sensor_id;sensor_type;location;lat;lon;timestamp;pressure;altitude;pressure_sealevel;temperature;humidity
51299;BME280;37382;45.192;9.790;2023-12-14T00:02:18;100139.41;;;7.27;100.00
51299;BME280;37382;45.192;9.790;2023-12-14T00:04:46;100138.25;;;7.15;100.00
51299;BME280;37382;45.192;9.790;2023-12-14T00:07:14;100131.59;;;7.33;100.00
51299;BME280;37382;45.192;9.790;2023-12-14T00:09:42;100134.56;;;7.23;100.00
51299;BME280;37382;45.192;9.790;2023-12-14T00:12:10;100142.44;;;7.18;100.00
51299;BME280;37382;45.192;9.790;2023-12-14T00:14:37;100138.81;;;7.10;100.00
51299;BME280;37382;45.192;9.790;2023-12-14T00:17:04;100128.88;;;6.96;100.00
51299;BME280;37382;45.192;9.790;2023-12-14T00:19:32;100137.56;;;6.91;100.00
51299;BME280;37382;45.192;9.790;2023-12-14T00:21:59;100135.22;;;6.88;100.00
51299;BME280;37382;45.192;9.790;2023-12-14T00:24:27;100137.00;;;6.81;100.00
51299;BME280;37382;45.192;9.790;2023-12-14T00:26:54;100142.28;;;6.74;100.00
51299;BME280;37382;45.192;9.790;2023-12-14T00:29:22;100136.63;;;6.69;100.00
51299;BME280;37382;45.192;9.790;2023-12-14T00:31:49;100128.88;;;6.66;100.00
51299;BME280;37382;45.192;9.790;2023-12-14T00:34:17;100125.94;;;6.61;100.00
51299;BME280;37382;45.192;9.790;2023-12-14T00:36:44;100136.53;;;6.63;100.00
51299;BME280;37382;45.192;9.790;2023-12-14T00:39:12;100145.47;;;6.63;100.00
51299;BME280;37382;45.192;9.790;2023-12-14T00:41:40;100147.91;;;6.58;100.00
51299;BME280;37382;45.192;9.790;2023-12-14T00:44:07;100151.25;;;6.60;100.00
51299;BME280;37382;45.192;9.790;2023-12-14T00:46:35;100154.91;;;6.52;100.00
51299;BME280;37382;45.192;9.790;2023-12-14T00:49:02;100153.13;;;6.59;100.00
51299;BME280;37382;45.192;9.790;2023-12-14T00:51:30;100162.25;;;6.73;100.00
51299;BME280;37382;45.192;9.790;2023-12-14T00:53:57;100155.91;;;6.66;100.00
51299;BME280;37382;45.192;9.790;2023-12-14T00:56:25;100161.97;;;6.68;100.00
51299;BME280;37382;45.192;9.790;2023-12-14T00:58:52;100164.09;;;6.73;100.00
51299;BME280;37382;45.192;9.790;2023-12-14T01:01:19;100169.06;;;6.99;100.00
51299;BME280;37382;45.192;9.790;2023-12-14T01:03:47;100169.88;;;7.15;100.00
51299;BME280;37382;45.192;9.790;2023-12-14T01:06:15;100169.69;;;7.01;100.00
51299;BME280;37382;45.192;9.790;2023-12-14T01:08:42;100174.94;;;6.88;100.00
51299;BME280;37382;45.192;9.790;2023-12-14T01:11:09;100189.56;;;6.79;100.00
51299;BME280;37382;45.192;9.790;2023-12-14T01:13:38;100188.34;;;6.66;100.00
51299;BME280;37382;45.192;9.790;2023-12-14T01:16:06;100187.88;;;6.48;100.00
51299;BME280;37382;45.192;9.790;2023-12-14T01:18:33;100196.53;;;6.43;100.00
51299;BME280;37382;45.192;9.790;2023-12-14T01:21:01;100201.19;;;6.34;100.00
51299;BME280;37382;45.192;9.790;2023-12-14T01:23:28;100201.34;;;6.33;100.00
51299;BME280;37382;45.192;9.790;2023-12-14T01:25:56;100205.94;;;6.32;100.00
51299;BME280;37382;45.192;9.790;2023-12-14T01:28:23;100208.53;;;6.40;100.00
51299;BME280;37382;45.192;9.790;2023-12-14T01:30:52;100213.41;;;6.45;100.00
51299;BME280;37382;45.192;9.790;2023-12-14T01:33:20;100212.09;;;6.41;100.00
51299;BME280;37382;45.192;9.790;2023-12-14T01:35:48;100217.50;;;6.41;100.00
51299;BME280;37382;45.192;9.790;2023-12-14T01:38:15;100223.47;;;6.51;100.00
51299;BME280;37382;45.192;9.790;2023-12-14T01:40:43;100222.91;;;6.56;100.00
51299;BME280;37382;45.192;9.790;2023-12-14T01:43:11;100223.88;;;6.63;100.00
51299;BME280;37382;45.192;9.790;2023-12-14T01:45:38;100228.16;;;6.72;100.00
51299;BME280;37382;45.192;9.790;2023-12-14T01:48:06;100233.47;;;6.66;100.00
51299;BME280;37382;45.192;9.790;2023-12-14T01:50:34;100244.38;;;6.72;100.00
51299;BME280;37382;45.192;9.790;2023-12-14T01:53:01;100241.69;;;6.87;100.00
51299;BME280;37382;45.192;9.790;2023-12-14T01:55:28;100244.84;;;6.91;100.00
51299;BME280;37382;45.192;9.790;2023-12-14T01:57:56;100255.47;;;6.92;100.00
51299;BME280;37382;45.192;9.790;2023-12-14T02:03:23;100246.91;;;7.19;100.00
51299;BME280;37382;45.192;9.790;2023-12-14T02:05:50;100255.50;;;7.22;100.00
51299;BME280;37382;45.192;9.790;2023-12-14T02:08:18;100254.47;;;7.23;100.00
51299;BME280;37382;45.192;9.790;2023-12-14T02:10:45;100257.00;;;7.25;100.00
51299;BME280;37382;45.192;9.790;2023-12-14T02:13:13;100259.59;;;7.18;100.00
51299;BME280;37382;45.192;9.790;2023-12-14T02:15:40;100256.31;;;7.23;100.00
51299;BME280;37382;45.192;9.790;2023-12-14T02:18:08;100254.16;;;7.33;100.00
51299;BME280;37382;45.192;9.790;2023-12-14T02:20:36;100260.03;;;7.37;100.00
51299;BME280;37382;45.192;9.790;2023-12-14T02:23:03;100257.44;;;7.43;100.00
51299;BME280;37382;45.192;9.790;2023-12-14T02:25:31;100258.81;;;7.54;100.00
51299;BME280;37382;45.192;9.790;2023-12-14T02:27:58;100254.16;;;7.48;100.00
51299;BME280;37382;45.192;9.790;2023-12-14T02:30:25;100259.13;;;7.29;100.00
51299;BME280;37382;45.192;9.790;2023-12-14T02:32:53;100256.63;;;7.13;100.00
51299;BME280;37382;45.192;9.790;2023-12-14T02:35:20;100260.34;;;7.27;100.00
51299;BME280;37382;45.192;9.790;2023-12-14T02:37:48;100265.00;;;7.18;100.00
51299;BME280;37382;45.192;9.790;2023-12-14T02:40:16;100269.69;;;6.94;100.00
51299;BME280;37382;45.192;9.790;2023-12-14T02:42:44;100262.56;;;6.93;100.00
51299;BME280;37382;45.192;9.790;2023-12-14T02:45:11;100271.63;;;6.86;100.00
51299;BME280;37382;45.192;9.790;2023-12-14T02:47:39;100273.94;;;6.89;100.00
51299;BME280;37382;45.192;9.790;2023-12-14T02:50:07;100280.66;;;6.78;100.00
51299;BME280;37382;45.192;9.790;2023-12-14T02:52:35;100277.28;;;6.76;100.00
51299;BME280;37382;45.192;9.790;2023-12-14T02:55:03;100281.66;;;6.77;100.00
51299;BME280;37382;45.192;9.790;2023-12-14T02:57:31;100274.56;;;6.76;100.00
51299;BME280;37382;45.192;9.790;2023-12-14T02:59:58;100274.41;;;6.78;100.00
51299;BME280;37382;45.192;9.790;2023-12-14T03:05:59;100274.22;;;6.79;100.00
51299;BME280;37382;45.192;9.790;2023-12-14T03:08:26;100269.00;;;6.78;100.00
51299;BME280;37382;45.192;9.790;2023-12-14T03:10:54;100274.22;;;6.79;100.00
51299;BME280;37382;45.192;9.790;2023-12-14T03:13:22;100281.03;;;6.90;100.00
51299;BME280;37382;45.192;9.790;2023-12-14T03:15:50;100281.88;;;6.90;100.00
51299;BME280;37382;45.192;9.790;2023-12-14T03:18:18;100292.88;;;6.89;100.00
51299;BME280;37382;45.192;9.790;2023-12-14T03:20:46;100291.69;;;6.91;100.00
51299;BME280;37382;45.192;9.790;2023-12-14T03:23:13;100297.00;;;7.00;100.00
51299;BME280;37382;45.192;9.790;2023-12-14T03:25:41;100296.44;;;7.04;100.00
51299;BME280;37382;45.192;9.790;2023-12-14T03:28:08;100296.81;;;7.01;100.00
51299;BME280;37382;45.192;9.790;2023-12-14T03:30:36;100296.06;;;7.07;100.00
51299;BME280;37382;45.192;9.790;2023-12-14T03:33:04;100312.28;;;7.07;100.00
51299;BME280;37382;45.192;9.790;2023-12-14T03:35:34;100307.34;;;7.11;100.00
51299;BME280;37382;45.192;9.790;2023-12-14T03:38:03;100315.56;;;7.18;100.00
51299;BME280;37382;45.192;9.790;2023-12-14T03:40:30;100314.63;;;7.25;100.00
51299;BME280;37382;45.192;9.790;2023-12-14T03:42:58;100311.75;;;7.27;100.00
51299;BME280;37382;45.192;9.790;2023-12-14T03:45:25;100321.81;;;7.18;100.00
51299;BME280;37382;45.192;9.790;2023-12-14T03:47:53;100314.56;;;7.19;100.00
51299;BME280;37382;45.192;9.790;2023-12-14T03:50:20;100324.69;;;7.17;100.00
51299;BME280;37382;45.192;9.790;2023-12-14T03:52:48;100314.44;;;7.12;100.00
51299;BME280;37382;45.192;9.790;2023-12-14T03:55:15;100329.47;;;7.15;100.00
51299;BME280;37382;45.192;9.790;2023-12-14T03:57:43;100331.16;;;7.16;100.00
51299;BME280;37382;45.192;9.790;2023-12-14T04:00:11;100334.88;;;7.15;100.00
51299;BME280;37382;45.192;9.790;2023-12-14T04:02:40;100332.44;;;7.20;100.00
51299;BME280;37382;45.192;9.790;2023-12-14T04:05:08;100341.41;;;7.20;100.00
51299;BME280;37382;45.192;9.790;2023-12-14T04:07:36;100343.75;;;7.23;100.00
51299;BME280;37382;45.192;9.790;2023-12-14T04:12:39;100338.03;;;7.18;100.00
51299;BME280;37382;45.192;9.790;2023-12-14T04:15:09;100336.56;;;7.16;100.00
51299;BME280;37382;45.192;9.790;2023-12-14T04:17:36;100337.94;;;7.11;100.00
51299;BME280;37382;45.192;9.790;2023-12-14T04:20:05;100341.69;;;7.25;100.00
51299;BME280;37382;45.192;9.790;2023-12-14T04:22:33;100340.56;;;7.20;100.00
51299;BME280;37382;45.192;9.790;2023-12-14T04:25:01;100340.09;;;7.16;100.00
51299;BME280;37382;45.192;9.790;2023-12-14T04:27:29;100348.41;;;7.15;100.00
51299;BME280;37382;45.192;9.790;2023-12-14T04:29:57;100344.84;;;7.14;100.00
51299;BME280;37382;45.192;9.790;2023-12-14T04:32:25;100350.63;;;7.11;100.00
51299;BME280;37382;45.192;9.790;2023-12-14T04:34:52;100355.66;;;7.14;100.00
51299;BME280;37382;45.192;9.790;2023-12-14T04:37:20;100361.25;;;7.12;100.00
51299;BME280;37382;45.192;9.790;2023-12-14T04:39:47;100359.41;;;7.13;100.00
51299;BME280;37382;45.192;9.790;2023-12-14T04:42:15;100360.41;;;7.12;100.00
51299;BME280;37382;45.192;9.790;2023-12-14T04:44:42;100367.25;;;7.23;100.00
51299;BME280;37382;45.192;9.790;2023-12-14T04:47:09;100374.06;;;7.19;100.00
51299;BME280;37382;45.192;9.790;2023-12-14T04:49:37;100367.53;;;7.13;100.00
51299;BME280;37382;45.192;9.790;2023-12-14T04:52:04;100374.13;;;7.10;100.00
51299;BME280;37382;45.192;9.790;2023-12-14T04:54:32;100373.94;;;7.12;100.00
51299;BME280;37382;45.192;9.790;2023-12-14T04:57:03;100382.88;;;7.12;100.00
51299;BME280;37382;45.192;9.790;2023-12-14T04:59:30;100388.78;;;7.16;100.00
51299;BME280;37382;45.192;9.790;2023-12-14T05:01:58;100390.00;;;7.13;100.00
51299;BME280;37382;45.192;9.790;2023-12-14T05:04:25;100400.53;;;7.08;100.00
51299;BME280;37382;45.192;9.790;2023-12-14T05:06:53;100401.63;;;7.14;100.00
51299;BME280;37382;45.192;9.790;2023-12-14T05:09:21;100406.59;;;7.10;100.00
51299;BME280;37382;45.192;9.790;2023-12-14T05:11:49;100410.97;;;7.11;100.00
51299;BME280;37382;45.192;9.790;2023-12-14T05:14:16;100408.28;;;7.11;100.00
51299;BME280;37382;45.192;9.790;2023-12-14T05:16:44;100409.75;;;7.14;100.00
51299;BME280;37382;45.192;9.790;2023-12-14T05:19:12;100421.63;;;7.13;100.00
51299;BME280;37382;45.192;9.790;2023-12-14T05:21:42;100429.84;;;7.20;100.00
51299;BME280;37382;45.192;9.790;2023-12-14T05:24:10;100423.28;;;7.14;100.00
51299;BME280;37382;45.192;9.790;2023-12-14T05:26:38;100425.66;;;7.17;100.00
51299;BME280;37382;45.192;9.790;2023-12-14T05:29:05;100440.28;;;7.23;100.00
51299;BME280;37382;45.192;9.790;2023-12-14T05:31:33;100449.63;;;7.20;100.00
51299;BME280;37382;45.192;9.790;2023-12-14T05:34:00;100445.69;;;7.23;100.00
51299;BME280;37382;45.192;9.790;2023-12-14T05:36:28;100446.38;;;7.25;100.00
51299;BME280;37382;45.192;9.790;2023-12-14T05:38:55;100453.66;;;7.39;100.00
51299;BME280;37382;45.192;9.790;2023-12-14T05:41:23;100457.00;;;7.26;100.00
51299;BME280;37382;45.192;9.790;2023-12-14T05:43:50;100452.16;;;7.22;100.00
51299;BME280;37382;45.192;9.790;2023-12-14T05:46:22;100451.31;;;7.36;100.00
51299;BME280;37382;45.192;9.790;2023-12-14T05:48:50;100463.06;;;7.28;100.00
51299;BME280;37382;45.192;9.790;2023-12-14T05:51:28;100468.16;;;7.46;100.00
51299;BME280;37382;45.192;9.790;2023-12-14T05:53:55;100467.41;;;7.53;100.00
51299;BME280;37382;45.192;9.790;2023-12-14T05:56:24;100468.16;;;7.46;100.00
51299;BME280;37382;45.192;9.790;2023-12-14T05:58:53;100471.47;;;7.34;100.00
51299;BME280;37382;45.192;9.790;2023-12-14T06:01:20;100478.16;;;7.23;100.00
51299;BME280;37382;45.192;9.790;2023-12-14T06:03:48;100476.03;;;7.33;100.00
51299;BME280;37382;45.192;9.790;2023-12-14T06:06:16;100484.72;;;7.28;100.00
51299;BME280;37382;45.192;9.790;2023-12-14T06:08:44;100482.00;;;7.28;100.00
51299;BME280;37382;45.192;9.790;2023-12-14T06:11:13;100490.50;;;7.25;100.00
51299;BME280;37382;45.192;9.790;2023-12-14T06:13:41;100498.16;;;7.37;100.00
51299;BME280;37382;45.192;9.790;2023-12-14T06:16:08;100497.09;;;7.23;100.00
51299;BME280;37382;45.192;9.790;2023-12-14T06:18:40;100496.91;;;7.24;100.00
51299;BME280;37382;45.192;9.790;2023-12-14T06:21:11;100502.47;;;7.31;100.00
51299;BME280;37382;45.192;9.790;2023-12-14T06:23:39;100510.16;;;7.19;100.00
51299;BME280;37382;45.192;9.790;2023-12-14T06:26:07;100505.81;;;7.33;100.00
51299;BME280;37382;45.192;9.790;2023-12-14T06:28:35;100509.16;;;7.35;100.00
51299;BME280;37382;45.192;9.790;2023-12-14T06:31:02;100514.94;;;7.32;100.00
51299;BME280;37382;45.192;9.790;2023-12-14T06:33:31;100516.81;;;7.32;100.00
51299;BME280;37382;45.192;9.790;2023-12-14T06:36:03;100527.09;;;7.36;100.00
51299;BME280;37382;45.192;9.790;2023-12-14T06:38:31;100524.47;;;7.28;100.00
51299;BME280;37382;45.192;9.790;2023-12-14T06:40:58;100530.97;;;7.19;100.00
51299;BME280;37382;45.192;9.790;2023-12-14T06:43:26;100536.75;;;7.16;100.00
51299;BME280;37382;45.192;9.790;2023-12-14T06:45:53;100536.59;;;7.09;100.00
51299;BME280;37382;45.192;9.790;2023-12-14T06:48:21;100542.56;;;7.04;100.00
51299;BME280;37382;45.192;9.790;2023-12-14T06:50:48;100536.06;;;7.13;100.00
51299;BME280;37382;45.192;9.790;2023-12-14T06:53:16;100546.94;;;7.05;100.00
51299;BME280;37382;45.192;9.790;2023-12-14T06:55:44;100552.03;;;7.00;100.00
51299;BME280;37382;45.192;9.790;2023-12-14T06:58:11;100553.66;;;7.09;100.00
51299;BME280;37382;45.192;9.790;2023-12-14T07:00:39;100555.19;;;7.12;100.00
51299;BME280;37382;45.192;9.790;2023-12-14T07:03:06;100560.66;;;7.04;100.00
51299;BME280;37382;45.192;9.790;2023-12-14T07:05:34;100556.44;;;7.01;100.00
51299;BME280;37382;45.192;9.790;2023-12-14T07:08:02;100559.50;;;7.21;100.00
51299;BME280;37382;45.192;9.790;2023-12-14T07:10:30;100561.75;;;7.18;100.00
51299;BME280;37382;45.192;9.790;2023-12-14T07:12:58;100562.94;;;7.15;100.00
51299;BME280;37382;45.192;9.790;2023-12-14T07:15:26;100570.63;;;7.03;100.00
51299;BME280;37382;45.192;9.790;2023-12-14T07:17:53;100574.53;;;7.01;100.00
51299;BME280;37382;45.192;9.790;2023-12-14T07:20:21;100586.53;;;6.98;100.00
51299;BME280;37382;45.192;9.790;2023-12-14T07:22:48;100582.56;;;7.17;100.00
51299;BME280;37382;45.192;9.790;2023-12-14T07:25:16;100586.63;;;7.13;100.00
51299;BME280;37382;45.192;9.790;2023-12-14T07:27:44;100592.03;;;7.13;100.00
51299;BME280;37382;45.192;9.790;2023-12-14T07:30:13;100596.13;;;7.09;100.00
51299;BME280;37382;45.192;9.790;2023-12-14T07:32:42;100613.34;;;7.08;100.00
51299;BME280;37382;45.192;9.790;2023-12-14T07:35:09;100616.78;;;7.02;100.00
51299;BME280;37382;45.192;9.790;2023-12-14T07:37:37;100615.94;;;7.01;100.00
51299;BME280;37382;45.192;9.790;2023-12-14T07:40:06;100629.09;;;7.04;100.00
51299;BME280;37382;45.192;9.790;2023-12-14T07:42:33;100630.63;;;7.07;100.00
51299;BME280;37382;45.192;9.790;2023-12-14T07:45:01;100628.88;;;7.14;100.00
51299;BME280;37382;45.192;9.790;2023-12-14T07:47:28;100637.50;;;7.18;100.00
51299;BME280;37382;45.192;9.790;2023-12-14T07:49:56;100639.41;;;7.32;100.00
51299;BME280;37382;45.192;9.790;2023-12-14T07:52:23;100644.91;;;7.24;100.00
51299;BME280;37382;45.192;9.790;2023-12-14T07:54:51;100648.59;;;7.31;100.00
51299;BME280;37382;45.192;9.790;2023-12-14T07:57:18;100648.22;;;7.34;100.00
51299;BME280;37382;45.192;9.790;2023-12-14T07:59:46;100659.88;;;7.35;100.00
51299;BME280;37382;45.192;9.790;2023-12-14T08:02:14;100662.41;;;7.36;100.00
51299;BME280;37382;45.192;9.790;2023-12-14T08:04:42;100666.13;;;7.35;100.00
51299;BME280;37382;45.192;9.790;2023-12-14T08:07:10;100661.31;;;7.45;100.00
51299;BME280;37382;45.192;9.790;2023-12-14T08:09:37;100660.94;;;7.57;100.00
51299;BME280;37382;45.192;9.790;2023-12-14T08:12:05;100665.00;;;7.53;100.00
51299;BME280;37382;45.192;9.790;2023-12-14T08:14:34;100655.69;;;7.55;100.00
51299;BME280;37382;45.192;9.790;2023-12-14T08:17:01;100668.91;;;7.50;100.00
51299;BME280;37382;45.192;9.790;2023-12-14T08:19:29;100675.69;;;7.46;100.00
51299;BME280;37382;45.192;9.790;2023-12-14T08:21:57;100681.44;;;7.51;100.00
51299;BME280;37382;45.192;9.790;2023-12-14T08:24:24;100692.81;;;7.46;100.00
51299;BME280;37382;45.192;9.790;2023-12-14T08:26:51;100695.88;;;7.43;100.00
51299;BME280;37382;45.192;9.790;2023-12-14T08:29:19;100694.97;;;7.51;100.00
51299;BME280;37382;45.192;9.790;2023-12-14T08:31:46;100707.47;;;7.52;100.00
51299;BME280;37382;45.192;9.790;2023-12-14T08:34:14;100706.06;;;7.64;100.00
51299;BME280;37382;45.192;9.790;2023-12-14T08:36:41;100712.31;;;7.65;100.00
51299;BME280;37382;45.192;9.790;2023-12-14T08:39:09;100724.47;;;7.69;100.00
51299;BME280;37382;45.192;9.790;2023-12-14T08:41:36;100729.19;;;7.67;100.00
51299;BME280;37382;45.192;9.790;2023-12-14T08:44:04;100724.41;;;7.46;100.00
51299;BME280;37382;45.192;9.790;2023-12-14T08:46:38;100722.25;;;7.41;100.00
51299;BME280;37382;45.192;9.790;2023-12-14T08:49:06;100734.50;;;7.60;100.00
51299;BME280;37382;45.192;9.790;2023-12-14T08:51:34;100734.88;;;7.49;100.00
51299;BME280;37382;45.192;9.790;2023-12-14T08:54:01;100736.72;;;7.57;100.00
51299;BME280;37382;45.192;9.790;2023-12-14T08:56:29;100742.50;;;7.54;100.00
51299;BME280;37382;45.192;9.790;2023-12-14T08:58:56;100738.22;;;7.59;100.00
51299;BME280;37382;45.192;9.790;2023-12-14T09:01:25;100742.19;;;7.72;100.00
51299;BME280;37382;45.192;9.790;2023-12-14T09:03:52;100756.63;;;7.64;100.00
51299;BME280;37382;45.192;9.790;2023-12-14T09:06:20;100757.97;;;7.68;100.00
51299;BME280;37382;45.192;9.790;2023-12-14T09:08:47;100761.41;;;7.62;100.00
51299;BME280;37382;45.192;9.790;2023-12-14T09:11:16;100767.38;;;7.80;100.00
51299;BME280;37382;45.192;9.790;2023-12-14T09:13:44;100764.97;;;7.86;100.00
51299;BME280;37382;45.192;9.790;2023-12-14T09:16:12;100767.44;;;7.72;100.00
51299;BME280;37382;45.192;9.790;2023-12-14T09:18:39;100773.94;;;7.55;100.00
51299;BME280;37382;45.192;9.790;2023-12-14T09:21:07;100783.00;;;7.70;100.00
51299;BME280;37382;45.192;9.790;2023-12-14T09:23:34;100786.28;;;7.57;100.00
51299;BME280;37382;45.192;9.790;2023-12-14T09:26:02;100793.41;;;7.58;100.00
51299;BME280;37382;45.192;9.790;2023-12-14T09:28:30;100793.59;;;7.57;100.00
51299;BME280;37382;45.192;9.790;2023-12-14T09:30:57;100800.59;;;7.35;100.00
51299;BME280;37382;45.192;9.790;2023-12-14T09:33:25;100788.97;;;7.26;100.00
51299;BME280;37382;45.192;9.790;2023-12-14T09:35:53;100787.94;;;7.27;100.00
51299;BME280;37382;45.192;9.790;2023-12-14T09:38:21;100802.25;;;7.44;100.00
51299;BME280;37382;45.192;9.790;2023-12-14T09:40:49;100807.63;;;7.52;100.00
51299;BME280;37382;45.192;9.790;2023-12-14T09:43:16;100808.59;;;7.59;100.00
51299;BME280;37382;45.192;9.790;2023-12-14T09:45:45;100812.59;;;7.72;100.00
51299;BME280;37382;45.192;9.790;2023-12-14T09:48:15;100822.97;;;7.68;100.00
51299;BME280;37382;45.192;9.790;2023-12-14T09:50:43;100816.44;;;7.54;100.00
51299;BME280;37382;45.192;9.790;2023-12-14T09:53:11;100821.00;;;7.54;100.00
51299;BME280;37382;45.192;9.790;2023-12-14T09:55:39;100816.06;;;7.57;100.00
51299;BME280;37382;45.192;9.790;2023-12-14T09:58:07;100819.47;;;7.91;100.00
51299;BME280;37382;45.192;9.790;2023-12-14T10:00:38;100821.34;;;8.36;100.00
51299;BME280;37382;45.192;9.790;2023-12-14T10:03:28;100825.69;;;7.99;100.00
51299;BME280;37382;45.192;9.790;2023-12-14T10:05:56;100835.09;;;8.12;100.00
51299;BME280;37382;45.192;9.790;2023-12-14T10:08:25;100829.69;;;8.04;100.00
51299;BME280;37382;45.192;9.790;2023-12-14T10:10:54;100835.78;;;8.06;100.00
51299;BME280;37382;45.192;9.790;2023-12-14T10:13:37;100838.44;;;8.14;100.00
51299;BME280;37382;45.192;9.790;2023-12-14T10:16:04;100836.81;;;8.28;100.00
51299;BME280;37382;45.192;9.790;2023-12-14T10:18:33;100841.88;;;8.08;100.00
51299;BME280;37382;45.192;9.790;2023-12-14T10:21:07;100845.09;;;8.34;100.00
51299;BME280;37382;45.192;9.790;2023-12-14T10:23:35;100846.69;;;8.20;100.00
51299;BME280;37382;45.192;9.790;2023-12-14T10:26:04;100854.69;;;8.45;100.00
51299;BME280;37382;45.192;9.790;2023-12-14T10:28:32;100856.50;;;8.22;100.00
51299;BME280;37382;45.192;9.790;2023-12-14T10:30:59;100850.63;;;8.41;100.00
51299;BME280;37382;45.192;9.790;2023-12-14T10:33:27;100850.16;;;8.37;100.00
51299;BME280;37382;45.192;9.790;2023-12-14T10:35:56;100851.75;;;8.24;100.00
51299;BME280;37382;45.192;9.790;2023-12-14T10:38:24;100853.22;;;8.34;100.00
51299;BME280;37382;45.192;9.790;2023-12-14T10:40:53;100852.19;;;8.35;100.00
51299;BME280;37382;45.192;9.790;2023-12-14T10:43:22;100853.84;;;8.68;100.00
51299;BME280;37382;45.192;9.790;2023-12-14T10:46:10;100850.56;;;8.49;100.00
51299;BME280;37382;45.192;9.790;2023-12-14T10:48:38;100856.00;;;8.49;100.00
51299;BME280;37382;45.192;9.790;2023-12-14T10:51:11;100856.31;;;8.54;100.00
51299;BME280;37382;45.192;9.790;2023-12-14T10:53:39;100858.72;;;8.72;100.00
51299;BME280;37382;45.192;9.790;2023-12-14T10:56:10;100856.03;;;8.87;100.00
51299;BME280;37382;45.192;9.790;2023-12-14T10:58:50;100863.72;;;8.61;100.00
51299;BME280;37382;45.192;9.790;2023-12-14T11:01:19;100859.03;;;8.54;100.00
51299;BME280;37382;45.192;9.790;2023-12-14T11:03:48;100853.16;;;8.66;100.00
51299;BME280;37382;45.192;9.790;2023-12-14T11:06:30;100861.06;;;8.90;100.00
51299;BME280;37382;45.192;9.790;2023-12-14T11:09:06;100862.72;;;9.15;100.00
51299;BME280;37382;45.192;9.790;2023-12-14T11:14:21;100865.03;;;9.03;100.00
51299;BME280;37382;45.192;9.790;2023-12-14T11:16:54;100871.34;;;9.18;100.00
51299;BME280;37382;45.192;9.790;2023-12-14T11:24:35;100877.41;;;9.20;100.00
51299;BME280;37382;45.192;9.790;2023-12-14T11:27:06;100884.72;;;9.20;100.00
51299;BME280;37382;45.192;9.790;2023-12-14T11:29:38;100889.22;;;9.72;100.00
51299;BME280;37382;45.192;9.790;2023-12-14T11:32:06;100890.47;;;9.55;100.00
51299;BME280;37382;45.192;9.790;2023-12-14T11:34:34;100895.41;;;9.66;100.00
51299;BME280;37382;45.192;9.790;2023-12-14T11:37:01;100897.47;;;9.79;100.00
51299;BME280;37382;45.192;9.790;2023-12-14T11:39:30;100906.75;;;9.55;100.00
51299;BME280;37382;45.192;9.790;2023-12-14T11:42:03;100903.94;;;9.63;100.00
51299;BME280;37382;45.192;9.790;2023-12-14T11:44:30;100896.16;;;9.75;100.00
51299;BME280;37382;45.192;9.790;2023-12-14T11:46:58;100897.22;;;10.10;100.00
51299;BME280;37382;45.192;9.790;2023-12-14T11:49:26;100902.53;;;9.82;100.00
51299;BME280;37382;45.192;9.790;2023-12-14T11:52:02;100904.88;;;9.85;100.00
51299;BME280;37382;45.192;9.790;2023-12-14T11:54:31;100895.22;;;9.83;100.00
51299;BME280;37382;45.192;9.790;2023-12-14T11:57:01;100901.13;;;9.71;100.00
51299;BME280;37382;45.192;9.790;2023-12-14T11:59:28;100891.81;;;9.95;100.00
51299;BME280;37382;45.192;9.790;2023-12-14T12:01:58;100902.31;;;9.98;100.00
51299;BME280;37382;45.192;9.790;2023-12-14T12:04:27;100907.03;;;9.90;100.00
51299;BME280;37382;45.192;9.790;2023-12-14T12:07:02;100909.19;;;9.79;100.00
51299;BME280;37382;45.192;9.790;2023-12-14T12:09:35;100906.34;;;10.03;100.00
51299;BME280;37382;45.192;9.790;2023-12-14T12:12:08;100903.09;;;10.29;100.00
51299;BME280;37382;45.192;9.790;2023-12-14T12:14:36;100898.84;;;10.41;100.00
51299;BME280;37382;45.192;9.790;2023-12-14T12:17:05;100910.13;;;10.38;100.00
51299;BME280;37382;45.192;9.790;2023-12-14T12:19:37;100907.91;;;10.12;100.00
51299;BME280;37382;45.192;9.790;2023-12-14T12:22:05;100903.88;;;10.08;100.00
51299;BME280;37382;45.192;9.790;2023-12-14T12:24:32;100898.31;;;10.67;100.00
51299;BME280;37382;45.192;9.790;2023-12-14T12:27:01;100895.56;;;10.46;100.00
51299;BME280;37382;45.192;9.790;2023-12-14T12:29:29;100903.97;;;10.94;100.00
51299;BME280;37382;45.192;9.790;2023-12-14T12:31:57;100903.72;;;10.89;100.00
51299;BME280;37382;45.192;9.790;2023-12-14T12:34:24;100903.47;;;10.84;100.00
51299;BME280;37382;45.192;9.790;2023-12-14T12:36:52;100897.88;;;10.49;100.00
51299;BME280;37382;45.192;9.790;2023-12-14T12:39:19;100899.00;;;10.98;100.00
51299;BME280;37382;45.192;9.790;2023-12-14T12:41:47;100901.41;;;11.14;100.00
51299;BME280;37382;45.192;9.790;2023-12-14T12:44:14;100896.00;;;11.49;100.00
51299;BME280;37382;45.192;9.790;2023-12-14T12:46:41;100901.97;;;11.03;100.00
51299;BME280;37382;45.192;9.790;2023-12-14T12:49:09;100895.41;;;11.54;100.00
51299;BME280;37382;45.192;9.790;2023-12-14T12:51:36;100886.47;;;12.02;100.00
51299;BME280;37382;45.192;9.790;2023-12-14T12:54:04;100883.06;;;11.58;100.00
51299;BME280;37382;45.192;9.790;2023-12-14T12:56:39;100883.16;;;11.36;100.00
51299;BME280;37382;45.192;9.790;2023-12-14T12:59:07;100887.22;;;10.69;100.00
51299;BME280;37382;45.192;9.790;2023-12-14T13:01:36;100882.41;;;10.93;100.00
51299;BME280;37382;45.192;9.790;2023-12-14T13:04:17;100889.09;;;10.68;100.00
51299;BME280;37382;45.192;9.790;2023-12-14T13:06:46;100890.41;;;10.51;100.00
51299;BME280;37382;45.192;9.790;2023-12-14T13:09:18;100892.66;;;10.47;100.00
51299;BME280;37382;45.192;9.790;2023-12-14T13:11:47;100890.41;;;10.51;100.00
51299;BME280;37382;45.192;9.790;2023-12-14T13:14:14;100889.19;;;10.54;100.00